createdAt,value
2016-12-09T00:00:22.388Z,0
2016-12-09T00:01:30.960Z,0
2016-12-09T00:02:39.849Z,0
2016-12-09T00:03:49.090Z,0
2016-12-09T00:04:57.982Z,0
2016-12-09T00:06:06.874Z,0
2016-12-09T00:07:15.446Z,0
2016-12-09T00:08:24.015Z,0
2016-12-09T00:09:33.675Z,0
2016-12-09T00:10:42.274Z,0
2016-12-09T00:11:51.483Z,0
2016-12-09T00:13:00.371Z,0
2016-12-09T00:14:09.261Z,0
2016-12-09T00:15:17.934Z,0
2016-12-09T00:16:26.823Z,0
2016-12-09T00:17:35.717Z,0
2016-12-09T00:18:44.931Z,0
2016-12-09T00:19:53.506Z,0
2016-12-09T00:21:02.807Z,0
2016-12-09T00:22:11.692Z,0
2016-12-09T00:23:20.268Z,0
2016-12-09T00:24:29.167Z,0
2016-12-09T00:25:38.375Z,0
2016-12-09T00:26:46.999Z,0
2016-12-09T00:27:55.572Z,0
2016-12-09T00:29:04.779Z,0
2016-12-09T00:30:13.350Z,0
2016-12-09T00:31:21.921Z,0
2016-12-09T00:32:30.503Z,0
2016-12-09T00:33:39.717Z,0
2016-12-09T00:34:48.287Z,0
2016-12-09T00:35:56.860Z,0
2016-12-09T00:37:05.754Z,0
2016-12-09T00:38:14.627Z,0
2016-12-09T00:39:23.198Z,0
2016-12-09T00:40:32.092Z,0
2016-12-09T00:41:40.662Z,0
2016-12-09T00:42:49.551Z,0
2016-12-09T00:43:58.171Z,0
2016-12-09T00:45:07.069Z,0
2016-12-09T00:46:16.286Z,0
2016-12-09T00:47:25.204Z,0
2016-12-09T00:48:34.096Z,0
2016-12-09T00:49:43.286Z,0
2016-12-09T00:50:52.183Z,0
2016-12-09T00:52:00.757Z,0
2016-12-09T00:53:09.334Z,0
2016-12-09T00:54:18.227Z,0
2016-12-09T00:55:26.851Z,0
2016-12-09T00:56:35.422Z,0
2016-12-09T00:57:43.997Z,0
2016-12-09T00:58:52.592Z,0
2016-12-09T01:00:01.482Z,0
2016-12-09T01:01:10.423Z,0
2016-12-09T01:02:18.994Z,0
2016-12-09T01:03:27.566Z,0
2016-12-09T01:04:36.460Z,0
2016-12-09T01:05:45.040Z,0
2016-12-09T01:06:53.662Z,0
2016-12-09T01:08:02.241Z,0
2016-12-09T01:09:10.812Z,0
2016-12-09T01:10:19.700Z,0
2016-12-09T01:11:28.273Z,0
2016-12-09T01:12:37.624Z,0
2016-12-09T01:13:46.517Z,0
2016-12-09T01:14:55.093Z,0
2016-12-09T01:16:04.011Z,0
2016-12-09T01:17:12.909Z,0
2016-12-09T01:18:21.527Z,0
2016-12-09T01:19:30.423Z,0
2016-12-09T01:20:38.996Z,0
2016-12-09T01:21:47.883Z,0
2016-12-09T01:22:56.451Z,0
2016-12-09T01:24:05.841Z,0
2016-12-09T01:25:14.411Z,0
2016-12-09T01:26:22.988Z,0
2016-12-09T01:27:31.557Z,0
2016-12-09T01:28:40.448Z,0
2016-12-09T01:29:49.713Z,0
2016-12-09T01:30:58.607Z,0
2016-12-09T01:32:07.494Z,0
2016-12-09T01:33:16.380Z,0
2016-12-09T01:34:25.281Z,0
2016-12-09T01:35:34.883Z,0
2016-12-09T01:36:43.451Z,0
2016-12-09T01:37:52.024Z,0
2016-12-09T01:39:00.923Z,0
2016-12-09T01:40:09.520Z,0
2016-12-09T01:41:18.828Z,0
2016-12-09T01:42:27.404Z,0
2016-12-09T01:43:36.298Z,0
2016-12-09T01:44:44.871Z,0
2016-12-09T01:45:54.080Z,0
2016-12-09T01:47:02.702Z,0
2016-12-09T01:48:11.280Z,0
2016-12-09T01:49:20.489Z,0
2016-12-09T01:50:29.063Z,0
2016-12-09T01:51:37.952Z,0
2016-12-09T01:52:46.620Z,0
2016-12-09T01:53:55.193Z,0
2016-12-09T01:55:04.085Z,0
2016-12-09T01:56:13.004Z,0
2016-12-09T01:57:22.215Z,0
2016-12-09T01:58:30.838Z,0
2016-12-09T01:59:39.745Z,0
2016-12-09T02:00:48.638Z,0
2016-12-09T02:01:57.534Z,0
2016-12-09T02:03:06.748Z,0
2016-12-09T02:04:15.940Z,0
2016-12-09T02:05:24.833Z,0
2016-12-09T02:06:33.410Z,0
2016-12-09T02:07:42.304Z,0
2016-12-09T02:08:51.198Z,0
2016-12-09T02:09:59.823Z,0
2016-12-09T02:11:08.715Z,0
2016-12-09T02:12:17.603Z,0
2016-12-09T02:13:26.813Z,0
2016-12-09T02:14:35.384Z,0
2016-12-09T02:15:44.332Z,0
2016-12-09T02:16:52.902Z,0
2016-12-09T02:18:01.474Z,0
2016-12-09T02:19:10.698Z,0
2016-12-09T02:20:19.589Z,0
2016-12-09T02:21:28.879Z,0
2016-12-09T02:22:37.452Z,0
2016-12-09T02:23:46.025Z,0
2016-12-09T02:24:54.917Z,0
2016-12-09T02:26:03.819Z,0
2016-12-09T02:27:12.441Z,0
2016-12-09T02:28:21.332Z,0
2016-12-09T02:29:30.224Z,0
2016-12-09T02:30:38.796Z,0
2016-12-09T02:31:47.695Z,0
2016-12-09T02:32:56.686Z,0
2016-12-09T02:34:05.261Z,0
2016-12-09T02:35:14.162Z,0
2016-12-09T02:36:23.072Z,0
2016-12-09T02:37:31.966Z,0
2016-12-09T02:38:40.891Z,0
2016-12-09T02:39:49.797Z,0
2016-12-09T02:40:58.389Z,0
2016-12-09T02:42:07.608Z,0
2016-12-09T02:43:16.833Z,0
2016-12-09T02:44:25.856Z,0
2016-12-09T02:45:34.753Z,0
2016-12-09T02:46:43.664Z,0
2016-12-09T02:47:52.255Z,0
2016-12-09T02:49:01.177Z,0
2016-12-09T02:50:10.423Z,0
2016-12-09T02:51:19.013Z,0
2016-12-09T02:52:28.247Z,0
2016-12-09T02:53:37.476Z,0
2016-12-09T02:54:46.398Z,0
2016-12-09T02:55:55.040Z,0
2016-12-09T02:57:04.583Z,0
2016-12-09T02:58:13.503Z,0
2016-12-09T02:59:22.095Z,0
2016-12-09T03:00:30.686Z,0
2016-12-09T03:01:39.637Z,0
2016-12-09T03:02:48.545Z,0
2016-12-09T03:03:57.142Z,0
2016-12-09T03:05:05.729Z,0
2016-12-09T03:06:14.304Z,0
2016-12-09T03:07:23.294Z,0
2016-12-09T03:08:31.876Z,0
2016-12-09T03:09:40.802Z,0
2016-12-09T03:10:49.695Z,0
2016-12-09T03:11:58.281Z,0
2016-12-09T03:13:07.221Z,0
2016-12-09T03:14:15.809Z,0
2016-12-09T03:15:25.038Z,0
2016-12-09T03:16:34.582Z,0
2016-12-09T03:17:43.806Z,0
2016-12-09T03:18:52.771Z,0
2016-12-09T03:20:01.361Z,0
2016-12-09T03:21:09.957Z,0
2016-12-09T03:22:19.196Z,0
2016-12-09T03:23:27.781Z,0
2016-12-09T03:24:36.476Z,0
2016-12-09T03:25:45.069Z,0
2016-12-09T03:26:54.611Z,0
2016-12-09T03:28:03.505Z,0
2016-12-09T03:29:12.095Z,0
2016-12-09T03:30:20.737Z,0
2016-12-09T03:31:29.960Z,0
2016-12-09T03:32:38.859Z,0
2016-12-09T03:33:47.443Z,0
2016-12-09T03:34:56.032Z,0
2016-12-09T03:36:04.680Z,0
2016-12-09T03:37:13.586Z,0
2016-12-09T03:38:22.160Z,0
2016-12-09T03:39:31.387Z,0
2016-12-09T03:40:40.276Z,0
2016-12-09T03:41:49.204Z,0
2016-12-09T03:42:57.797Z,0
2016-12-09T03:44:06.375Z,0
2016-12-09T03:45:15.614Z,0
2016-12-09T03:46:24.540Z,0
2016-12-09T03:47:33.167Z,0
2016-12-09T03:48:41.753Z,0
2016-12-09T03:49:50.334Z,0
2016-12-09T03:50:58.933Z,0
2016-12-09T03:52:07.550Z,0
2016-12-09T03:53:17.181Z,0
2016-12-09T03:54:26.074Z,0
2016-12-09T03:55:34.668Z,0
2016-12-09T03:56:43.265Z,0
2016-12-09T03:57:52.499Z,0
2016-12-09T03:59:01.508Z,0
2016-12-09T04:00:10.724Z,0
2016-12-09T04:01:19.638Z,0
2016-12-09T04:02:28.545Z,0
2016-12-09T04:03:37.124Z,0
2016-12-09T04:04:46.076Z,0
2016-12-09T04:05:55.290Z,0
2016-12-09T04:07:03.885Z,0
2016-12-09T04:08:12.467Z,0
2016-12-09T04:09:21.368Z,0
2016-12-09T04:10:30.642Z,0
2016-12-09T04:11:39.222Z,0
2016-12-09T04:12:47.823Z,0
2016-12-09T04:13:57.096Z,0
2016-12-09T04:15:06.317Z,0
2016-12-09T04:16:15.514Z,0
2016-12-09T04:17:24.100Z,0
2016-12-09T04:18:33.007Z,0
2016-12-09T04:19:41.622Z,0
2016-12-09T04:20:50.525Z,0
2016-12-09T04:21:59.542Z,0
2016-12-09T04:23:08.451Z,0
2016-12-09T04:24:17.668Z,0
2016-12-09T04:25:26.261Z,0
2016-12-09T04:26:34.858Z,0
2016-12-09T04:27:43.839Z,0
2016-12-09T04:28:52.445Z,0
2016-12-09T04:30:01.023Z,0
2016-12-09T04:31:09.624Z,0
2016-12-09T04:32:18.230Z,0
2016-12-09T04:33:27.168Z,0
2016-12-09T04:34:36.084Z,0
2016-12-09T04:35:44.672Z,0
2016-12-09T04:36:53.604Z,0
2016-12-09T04:38:02.820Z,0
2016-12-09T04:39:11.810Z,0
2016-12-09T04:40:20.384Z,0
2016-12-09T04:41:28.980Z,0
2016-12-09T04:42:37.571Z,0
2016-12-09T04:43:46.475Z,0
2016-12-09T04:44:55.124Z,0
2016-12-09T04:46:03.722Z,0
2016-12-09T04:47:12.299Z,0
2016-12-09T04:48:21.195Z,0
2016-12-09T04:49:30.098Z,0
2016-12-09T04:50:39.740Z,0
2016-12-09T04:51:48.323Z,0
2016-12-09T04:52:57.554Z,0
2016-12-09T04:54:06.805Z,0
2016-12-09T04:55:15.388Z,0
2016-12-09T04:56:24.328Z,0
2016-12-09T04:57:33.888Z,0
2016-12-09T04:58:42.478Z,0
2016-12-09T04:59:51.732Z,0
2016-12-09T05:01:00.633Z,0
2016-12-09T05:02:09.588Z,0
2016-12-09T05:03:18.162Z,0
2016-12-09T05:04:26.742Z,0
2016-12-09T05:05:35.976Z,0
2016-12-09T05:06:44.555Z,0
2016-12-09T05:07:53.196Z,0
2016-12-09T05:09:01.772Z,0
2016-12-09T05:10:11.010Z,0
2016-12-09T05:11:19.928Z,0
2016-12-09T05:12:28.849Z,0
2016-12-09T05:13:37.539Z,0
2016-12-09T05:14:46.459Z,0
2016-12-09T05:15:56.003Z,0
2016-12-09T05:17:04.907Z,0
2016-12-09T05:18:13.480Z,0
2016-12-09T05:19:22.828Z,0
2016-12-09T05:20:31.424Z,0
2016-12-09T05:21:40.013Z,0
2016-12-09T05:22:48.913Z,0
2016-12-09T05:23:57.508Z,0
2016-12-09T05:25:06.458Z,0
2016-12-09T05:26:15.364Z,0
2016-12-09T05:27:24.273Z,0
2016-12-09T05:28:32.877Z,0
2016-12-09T05:29:41.561Z,0
2016-12-09T05:30:50.511Z,0
2016-12-09T05:31:59.113Z,0
2016-12-09T05:33:08.036Z,0
2016-12-09T05:34:16.629Z,0
2016-12-09T05:35:25.866Z,0
2016-12-09T05:36:34.604Z,0
2016-12-09T05:37:43.192Z,0
2016-12-09T05:38:51.780Z,0
2016-12-09T05:40:00.999Z,0
2016-12-09T05:41:09.580Z,0
2016-12-09T05:42:18.826Z,0
2016-12-09T05:43:27.747Z,0
2016-12-09T05:44:36.988Z,0
2016-12-09T05:45:45.895Z,0
2016-12-09T05:46:54.812Z,0
2016-12-09T05:48:03.797Z,0
2016-12-09T05:49:12.392Z,0
2016-12-09T05:50:21.291Z,0
2016-12-09T05:51:29.877Z,0
2016-12-09T05:52:38.786Z,0
2016-12-09T05:53:47.795Z,0
2016-12-09T05:54:56.710Z,0
2016-12-09T05:56:05.633Z,0
2016-12-09T05:57:14.549Z,0
2016-12-09T05:58:23.127Z,0
2016-12-09T05:59:32.693Z,0
2016-12-09T06:00:41.604Z,0
2016-12-09T06:01:50.853Z,0
2016-12-09T06:02:59.763Z,0
2016-12-09T06:04:08.374Z,0
2016-12-09T06:05:17.424Z,0
2016-12-09T06:06:26.335Z,0
2016-12-09T06:07:34.933Z,0
2016-12-09T06:08:43.539Z,0
2016-12-09T06:09:52.124Z,0
2016-12-09T06:11:01.443Z,0
2016-12-09T06:12:10.032Z,0
2016-12-09T06:13:18.620Z,0
2016-12-09T06:14:27.527Z,0
2016-12-09T06:15:36.118Z,0
2016-12-09T06:16:45.107Z,0
2016-12-09T06:17:54.046Z,0
2016-12-09T06:19:03.298Z,0
2016-12-09T06:20:12.215Z,0
2016-12-09T06:21:22.068Z,0
2016-12-09T06:22:31.407Z,0
2016-12-09T06:23:40.643Z,0
2016-12-09T06:24:49.871Z,0
2016-12-09T06:25:58.466Z,0
2016-12-09T06:27:07.054Z,0
2016-12-09T06:28:16.076Z,0
2016-12-09T06:29:24.978Z,0
2016-12-09T06:30:33.879Z,0
2016-12-09T06:31:42.469Z,0
2016-12-09T06:32:51.371Z,0
2016-12-09T06:34:01.054Z,0
2016-12-09T06:35:09.960Z,0
2016-12-09T06:36:18.540Z,0
2016-12-09T06:37:27.142Z,0
2016-12-09T06:38:36.059Z,0
2016-12-09T06:39:45.377Z,0
2016-12-09T06:40:53.986Z,0
2016-12-09T06:42:03.206Z,0
2016-12-09T06:43:11.782Z,0
2016-12-09T06:44:20.687Z,0
2016-12-09T06:45:29.651Z,0
2016-12-09T06:46:38.574Z,0
2016-12-09T06:47:47.501Z,0
2016-12-09T06:48:56.083Z,0
2016-12-09T06:50:04.679Z,0
2016-12-09T06:51:13.624Z,0
2016-12-09T06:52:22.202Z,0
2016-12-09T06:53:30.793Z,0
2016-12-09T06:54:39.411Z,0
2016-12-09T06:55:48.004Z,0
2016-12-09T06:56:57.002Z,0
2016-12-09T06:58:05.598Z,0
2016-12-09T06:59:14.508Z,0
2016-12-09T07:00:23.737Z,0
2016-12-09T07:01:32.309Z,0
2016-12-09T07:02:41.266Z,0
2016-12-09T07:03:49.899Z,0
2016-12-09T07:04:58.492Z,0
2016-12-09T07:06:07.405Z,0
2016-12-09T07:07:15.981Z,0
2016-12-09T07:08:25.296Z,0
2016-12-09T07:09:34.211Z,0
2016-12-09T07:10:42.797Z,0
2016-12-09T07:11:51.374Z,0
2016-12-09T07:13:00.268Z,0
2016-12-09T07:14:09.552Z,0
2016-12-09T07:15:18.466Z,0
2016-12-09T07:16:27.376Z,5
2016-12-09T07:17:36.600Z,5
2016-12-09T07:18:45.190Z,5
2016-12-09T07:19:54.237Z,5
2016-12-09T07:21:03.147Z,5
2016-12-09T07:22:11.734Z,5
2016-12-09T07:23:20.360Z,5
2016-12-09T07:24:28.953Z,5
2016-12-09T07:25:37.939Z,10
2016-12-09T07:26:46.523Z,5
2016-12-09T07:27:55.099Z,10
2016-12-09T07:29:03.700Z,10
2016-12-09T07:30:13.572Z,10
2016-12-09T07:31:22.216Z,15
2016-12-09T07:32:31.133Z,15
2016-12-09T07:33:40.377Z,15
2016-12-09T07:34:49.293Z,15
2016-12-09T07:35:57.879Z,20
2016-12-09T07:37:07.208Z,20
2016-12-09T07:38:16.445Z,15
2016-12-09T07:39:25.027Z,20
2016-12-09T07:40:33.628Z,20
2016-12-09T07:41:42.568Z,25
2016-12-09T07:42:52.236Z,25
2016-12-09T07:44:01.505Z,30
2016-12-09T07:45:10.120Z,30
2016-12-09T07:46:19.374Z,35
2016-12-09T07:47:28.333Z,35
2016-12-09T07:48:37.619Z,35
2016-12-09T07:49:46.530Z,40
2016-12-09T07:50:55.119Z,40
2016-12-09T07:52:03.705Z,40
2016-12-09T07:53:12.293Z,45
2016-12-09T07:54:21.569Z,45
2016-12-09T07:55:30.797Z,45
2016-12-09T07:56:39.694Z,50
2016-12-09T07:57:48.934Z,50
2016-12-09T07:58:57.530Z,45
2016-12-09T08:00:06.747Z,50
2016-12-09T08:01:15.655Z,60
2016-12-09T08:02:24.254Z,55
2016-12-09T08:03:32.840Z,65
2016-12-09T08:04:41.734Z,60
2016-12-09T08:05:50.444Z,60
2016-12-09T08:06:59.025Z,75
2016-12-09T08:08:07.619Z,80
2016-12-09T08:09:16.206Z,70
2016-12-09T08:10:25.118Z,80
2016-12-09T08:11:34.076Z,90
2016-12-09T08:12:42.982Z,80
2016-12-09T08:13:52.226Z,75
2016-12-09T08:15:00.820Z,85
2016-12-09T08:16:10.360Z,105
2016-12-09T08:17:18.991Z,95
2016-12-09T08:18:27.908Z,90
2016-12-09T08:19:36.487Z,110
2016-12-09T08:20:45.069Z,90
2016-12-09T08:21:53.971Z,80
2016-12-09T08:23:02.651Z,65
2016-12-09T08:24:11.246Z,65
2016-12-09T08:25:20.477Z,60
2016-12-09T08:26:29.072Z,55
2016-12-09T08:27:37.676Z,75
2016-12-09T08:28:46.941Z,70
2016-12-09T08:29:55.530Z,95
2016-12-09T08:31:04.122Z,90
2016-12-09T08:32:12.712Z,85
2016-12-09T08:33:21.624Z,95
2016-12-09T08:34:30.550Z,85
2016-12-09T08:35:39.773Z,85
2016-12-09T08:36:48.685Z,85
2016-12-09T08:37:57.270Z,85
2016-12-09T08:39:05.859Z,80
2016-12-09T08:40:14.817Z,85
2016-12-09T08:41:23.728Z,70
2016-12-09T08:42:33.281Z,65
2016-12-09T08:43:42.180Z,65
2016-12-09T08:44:51.100Z,60
2016-12-09T08:46:00.056Z,55
2016-12-09T08:47:08.954Z,60
2016-12-09T08:48:17.861Z,65
2016-12-09T08:49:26.769Z,85
2016-12-09T08:50:35.368Z,80
2016-12-09T08:51:44.696Z,85
2016-12-09T08:52:53.608Z,80
2016-12-09T08:54:02.543Z,95
2016-12-09T08:55:11.775Z,85
2016-12-09T08:56:21.014Z,105
2016-12-09T08:57:29.979Z,115
2016-12-09T08:58:38.566Z,110
2016-12-09T08:59:47.507Z,125
2016-12-09T09:00:56.088Z,120
2016-12-09T09:02:05.310Z,140
2016-12-09T09:03:14.908Z,145
2016-12-09T09:04:24.152Z,150
2016-12-09T09:05:33.374Z,195
2016-12-09T09:06:42.291Z,195
2016-12-09T09:07:51.192Z,190
2016-12-09T09:08:59.877Z,170
2016-12-09T09:10:09.761Z,155
2016-12-09T09:11:18.350Z,145
2016-12-09T09:12:27.247Z,150
2016-12-09T09:13:35.836Z,150
2016-12-09T09:14:45.042Z,125
2016-12-09T09:15:53.633Z,140
2016-12-09T09:17:02.234Z,140
2016-12-09T09:18:10.857Z,135
2016-12-09T09:19:19.764Z,125
2016-12-09T09:20:28.412Z,110
2016-12-09T09:21:37.008Z,115
2016-12-09T09:22:45.607Z,110
2016-12-09T09:23:54.509Z,120
2016-12-09T09:25:03.116Z,130
2016-12-09T09:26:12.358Z,115
2016-12-09T09:27:21.256Z,115
2016-12-09T09:28:29.856Z,115
2016-12-09T09:29:38.445Z,110
2016-12-09T09:30:47.346Z,115
2016-12-09T09:31:56.915Z,115
2016-12-09T09:33:06.134Z,120
2016-12-09T09:34:15.684Z,120
2016-12-09T09:35:24.271Z,130
2016-12-09T09:36:32.844Z,135
2016-12-09T09:37:41.787Z,130
2016-12-09T09:38:51.021Z,145
2016-12-09T09:39:59.612Z,150
2016-12-09T09:41:08.206Z,145
2016-12-09T09:42:16.805Z,135
2016-12-09T09:43:25.798Z,120
2016-12-09T09:44:35.024Z,165
2016-12-09T09:45:44.257Z,160
2016-12-09T09:46:52.847Z,205
2016-12-09T09:48:01.762Z,180
2016-12-09T09:49:10.723Z,150
2016-12-09T09:50:19.647Z,160
2016-12-09T09:51:28.546Z,150
2016-12-09T09:52:37.460Z,130
2016-12-09T09:53:46.045Z,135
2016-12-09T09:54:55.021Z,115
2016-12-09T09:56:03.945Z,140
2016-12-09T09:57:12.538Z,145
2016-12-09T09:58:21.467Z,155
2016-12-09T09:59:30.069Z,150
2016-12-09T10:00:39.114Z,160
2016-12-09T10:01:48.340Z,160
2016-12-09T10:02:57.564Z,195
2016-12-09T10:04:06.154Z,180
2016-12-09T10:05:14.730Z,130
2016-12-09T10:06:23.314Z,130
2016-12-09T10:07:32.221Z,155
2016-12-09T10:08:41.148Z,160
2016-12-09T10:09:50.074Z,150
2016-12-09T10:10:58.988Z,155
2016-12-09T10:12:07.955Z,170
2016-12-09T10:13:17.194Z,175
2016-12-09T10:14:26.424Z,150
2016-12-09T10:15:35.349Z,130
2016-12-09T10:16:44.264Z,125
2016-12-09T10:17:53.165Z,135
2016-12-09T10:19:02.064Z,125
2016-12-09T10:20:10.996Z,130
2016-12-09T10:21:19.605Z,155
2016-12-09T10:22:28.196Z,140
2016-12-09T10:23:36.825Z,140
2016-12-09T10:24:46.081Z,135
2016-12-09T10:25:54.973Z,125
2016-12-09T10:27:04.221Z,120
2016-12-09T10:28:12.817Z,125
2016-12-09T10:29:21.693Z,140
2016-12-09T10:30:30.329Z,130
2016-12-09T10:31:38.969Z,140
2016-12-09T10:32:48.433Z,100
2016-12-09T10:33:57.028Z,110
2016-12-09T10:35:05.989Z,115
2016-12-09T10:36:14.581Z,100
2016-12-09T10:37:24.128Z,100
2016-12-09T10:38:32.725Z,110
2016-12-09T10:39:41.350Z,115
2016-12-09T10:40:50.235Z,110
2016-12-09T10:41:59.135Z,140
2016-12-09T10:43:08.379Z,130
2016-12-09T10:44:17.275Z,170
2016-12-09T10:45:26.824Z,195
2016-12-09T10:46:35.716Z,205
2016-12-09T10:47:44.305Z,180
2016-12-09T10:48:53.227Z,175
2016-12-09T10:50:01.827Z,150
2016-12-09T10:51:10.752Z,135
2016-12-09T10:52:19.727Z,135
2016-12-09T10:53:28.306Z,130
2016-12-09T10:54:37.533Z,130
2016-12-09T10:55:46.459Z,115
2016-12-09T10:56:55.410Z,130
2016-12-09T10:58:04.369Z,125
2016-12-09T10:59:13.607Z,135
2016-12-09T11:00:22.508Z,130
2016-12-09T11:01:31.098Z,135
2016-12-09T11:02:39.684Z,145
2016-12-09T11:03:48.612Z,165
2016-12-09T11:04:57.824Z,145
2016-12-09T11:06:06.725Z,150
2016-12-09T11:07:15.319Z,145
2016-12-09T11:08:24.554Z,160
2016-12-09T11:09:33.844Z,160
2016-12-09T11:10:42.752Z,150
2016-12-09T11:11:51.982Z,140
2016-12-09T11:13:00.554Z,130
2016-12-09T11:14:09.471Z,125
2016-12-09T11:15:18.702Z,145
2016-12-09T11:16:27.619Z,135
2016-12-09T11:17:36.192Z,135
2016-12-09T11:18:44.784Z,135
2016-12-09T11:19:54.324Z,135
2016-12-09T11:21:04.245Z,155
2016-12-09T11:22:12.842Z,155
2016-12-09T11:23:21.760Z,150
2016-12-09T11:24:30.349Z,140
2016-12-09T11:25:39.268Z,175
2016-12-09T11:26:48.229Z,165
2016-12-09T11:27:57.461Z,140
2016-12-09T11:29:06.067Z,175
2016-12-09T11:30:14.977Z,155
2016-12-09T11:31:23.885Z,140
2016-12-09T11:32:32.572Z,145
2016-12-09T11:33:41.810Z,155
2016-12-09T11:34:51.063Z,170
2016-12-09T11:36:00.617Z,160
2016-12-09T11:37:09.857Z,140
2016-12-09T11:38:19.117Z,120
2016-12-09T11:39:28.024Z,110
2016-12-09T11:40:36.620Z,125
2016-12-09T11:41:45.191Z,125
2016-12-09T11:42:53.785Z,105
2016-12-09T11:44:02.754Z,125
2016-12-09T11:45:11.698Z,120
2016-12-09T11:46:20.295Z,120
2016-12-09T11:47:28.874Z,115
2016-12-09T11:48:37.463Z,115
2016-12-09T11:49:46.427Z,125
2016-12-09T11:50:55.341Z,110
2016-12-09T11:52:04.247Z,100
2016-12-09T11:53:12.822Z,115
2016-12-09T11:54:21.429Z,110
2016-12-09T11:55:30.387Z,125
2016-12-09T11:56:38.958Z,105
2016-12-09T11:57:47.547Z,115
2016-12-09T11:58:56.475Z,120
2016-12-09T12:00:05.066Z,120
2016-12-09T12:01:14.075Z,120
2016-12-09T12:02:22.677Z,135
2016-12-09T12:03:31.263Z,140
2016-12-09T12:04:40.197Z,160
2016-12-09T12:05:48.799Z,140
2016-12-09T12:06:57.443Z,125
2016-12-09T12:08:06.033Z,115
2016-12-09T12:09:15.263Z,110
2016-12-09T12:10:24.501Z,125
2016-12-09T12:11:33.417Z,120
2016-12-09T12:12:42.721Z,105
2016-12-09T12:13:51.620Z,110
2016-12-09T12:15:00.225Z,105
2016-12-09T12:16:08.817Z,100
2016-12-09T12:17:17.738Z,110
2016-12-09T12:18:27.069Z,115
2016-12-09T12:19:35.691Z,105
2016-12-09T12:20:44.620Z,100
2016-12-09T12:21:53.527Z,95
2016-12-09T12:23:02.432Z,105
2016-12-09T12:24:11.401Z,105
2016-12-09T12:25:20.617Z,110
2016-12-09T12:26:29.523Z,100
2016-12-09T12:27:38.766Z,100
2016-12-09T12:28:47.365Z,105
2016-12-09T12:29:56.693Z,105
2016-12-09T12:31:05.615Z,120
2016-12-09T12:32:14.541Z,130
2016-12-09T12:33:23.448Z,110
2016-12-09T12:34:32.697Z,115
2016-12-09T12:35:41.660Z,120
2016-12-09T12:36:50.243Z,125
2016-12-09T12:37:59.471Z,115
2016-12-09T12:39:08.052Z,85
2016-12-09T12:40:16.644Z,80
2016-12-09T12:41:25.330Z,65
2016-12-09T12:42:34.231Z,85
2016-12-09T12:43:43.138Z,95
2016-12-09T12:44:52.068Z,95
2016-12-09T12:46:00.706Z,110
2016-12-09T12:47:09.667Z,125
2016-12-09T12:48:18.256Z,125
2016-12-09T12:49:27.169Z,140
2016-12-09T12:50:35.754Z,120
2016-12-09T12:51:44.644Z,105
2016-12-09T12:52:53.576Z,115
2016-12-09T12:54:02.486Z,105
2016-12-09T12:55:11.097Z,110
2016-12-09T12:56:20.010Z,120
2016-12-09T12:57:29.569Z,115
2016-12-09T12:58:38.207Z,120
2016-12-09T12:59:46.805Z,115
2016-12-09T13:00:55.734Z,90
2016-12-09T13:02:04.637Z,105
2016-12-09T13:03:13.562Z,120
2016-12-09T13:04:22.833Z,130
2016-12-09T13:05:31.736Z,120
2016-12-09T13:06:40.328Z,135
2016-12-09T13:07:48.899Z,115
2016-12-09T13:08:57.470Z,120
2016-12-09T13:10:06.412Z,120
2016-12-09T13:11:15.323Z,115
2016-12-09T13:12:24.583Z,130
2016-12-09T13:13:33.503Z,95
2016-12-09T13:14:42.421Z,100
2016-12-09T13:15:51.110Z,105
2016-12-09T13:16:59.682Z,105
2016-12-09T13:18:08.264Z,110
2016-12-09T13:19:16.850Z,115
2016-12-09T13:20:25.430Z,115
2016-12-09T13:21:34.359Z,120
2016-12-09T13:22:43.594Z,110
2016-12-09T13:23:52.502Z,100
2016-12-09T13:25:01.734Z,105
2016-12-09T13:26:10.306Z,100
2016-12-09T13:27:19.275Z,80
2016-12-09T13:28:28.199Z,80
2016-12-09T13:29:37.101Z,75
2016-12-09T13:30:45.708Z,75
2016-12-09T13:31:54.306Z,90
2016-12-09T13:33:03.279Z,85
2016-12-09T13:34:12.189Z,70
2016-12-09T13:35:21.752Z,65
2016-12-09T13:36:30.662Z,65
2016-12-09T13:37:39.259Z,55
2016-12-09T13:38:48.210Z,50
2016-12-09T13:39:56.806Z,50
2016-12-09T13:41:06.057Z,50
2016-12-09T13:42:14.654Z,55
2016-12-09T13:43:23.231Z,55
2016-12-09T13:44:32.163Z,50
2016-12-09T13:45:41.409Z,50
2016-12-09T13:46:50.309Z,50
2016-12-09T13:47:58.900Z,55
2016-12-09T13:49:07.801Z,50
2016-12-09T13:50:17.021Z,45
2016-12-09T13:51:26.245Z,50
2016-12-09T13:52:35.159Z,45
2016-12-09T13:53:44.086Z,50
2016-12-09T13:54:53.655Z,45
2016-12-09T13:56:02.902Z,45
2016-12-09T13:57:11.811Z,35
2016-12-09T13:58:20.728Z,35
2016-12-09T13:59:29.970Z,35
2016-12-09T14:00:38.575Z,30
2016-12-09T14:01:47.583Z,30
2016-12-09T14:02:56.179Z,35
2016-12-09T14:04:04.767Z,35
2016-12-09T14:05:13.347Z,30
2016-12-09T14:06:21.953Z,25
2016-12-09T14:07:30.593Z,25
2016-12-09T14:08:39.188Z,25
2016-12-09T14:09:47.763Z,25
2016-12-09T14:10:56.371Z,30
2016-12-09T14:12:05.273Z,35
2016-12-09T14:13:13.913Z,35
2016-12-09T14:14:22.828Z,40
2016-12-09T14:15:31.414Z,35
2016-12-09T14:16:40.330Z,30
2016-12-09T14:17:48.907Z,35
2016-12-09T14:18:57.897Z,30
2016-12-09T14:20:06.801Z,30
2016-12-09T14:21:16.039Z,35
2016-12-09T14:22:24.935Z,30
2016-12-09T14:23:33.849Z,25
2016-12-09T14:24:43.156Z,30
2016-12-09T14:25:51.751Z,30
2016-12-09T14:27:00.777Z,30
2016-12-09T14:28:09.891Z,25
2016-12-09T14:29:18.514Z,30
2016-12-09T14:30:27.758Z,20
2016-12-09T14:31:36.677Z,25
2016-12-09T14:32:45.910Z,20
2016-12-09T14:33:55.150Z,20
2016-12-09T14:35:03.750Z,15
2016-12-09T14:36:13.335Z,20
2016-12-09T14:37:21.932Z,15
2016-12-09T14:38:30.850Z,15
2016-12-09T14:39:39.443Z,15
2016-12-09T14:40:48.350Z,15
2016-12-09T14:41:57.221Z,15
2016-12-09T14:43:06.136Z,15
2016-12-09T14:44:14.736Z,10
2016-12-09T14:45:23.326Z,10
2016-12-09T14:46:32.541Z,10
2016-12-09T14:47:41.433Z,10
2016-12-09T14:48:50.330Z,5
2016-12-09T14:49:59.243Z,5
2016-12-09T14:51:08.146Z,5
2016-12-09T14:52:16.734Z,5
2016-12-09T14:53:25.373Z,5
2016-12-09T14:54:34.278Z,5
2016-12-09T14:55:43.196Z,5
2016-12-09T14:56:51.797Z,5
2016-12-09T14:58:00.387Z,5
2016-12-09T14:59:09.306Z,5
2016-12-09T15:00:18.212Z,0
2016-12-09T15:01:26.794Z,0
2016-12-09T15:02:36.015Z,0
2016-12-09T15:03:44.904Z,0
2016-12-09T15:04:53.857Z,0
2016-12-09T15:06:03.093Z,0
2016-12-09T15:07:11.679Z,0
2016-12-09T15:08:20.585Z,0
2016-12-09T15:09:29.498Z,0
2016-12-09T15:10:38.489Z,0
2016-12-09T15:11:47.069Z,0
2016-12-09T15:12:55.987Z,0
2016-12-09T15:14:04.574Z,0
2016-12-09T15:15:13.167Z,0
2016-12-09T15:16:22.201Z,0
2016-12-09T15:17:30.811Z,0
2016-12-09T15:18:39.711Z,0
2016-12-09T15:19:48.299Z,0
2016-12-09T15:20:57.203Z,0
2016-12-09T15:22:05.832Z,0
2016-12-09T15:23:14.423Z,0
2016-12-09T15:24:23.339Z,0
2016-12-09T15:25:31.934Z,0
2016-12-09T15:26:41.171Z,0
2016-12-09T15:27:50.449Z,0
2016-12-09T15:28:59.356Z,0
2016-12-09T15:30:08.268Z,0
2016-12-09T15:31:17.170Z,0
2016-12-09T15:32:26.215Z,0
2016-12-09T15:33:35.150Z,0
2016-12-09T15:34:44.045Z,0
2016-12-09T15:35:52.980Z,0
2016-12-09T15:37:01.556Z,0
2016-12-09T15:38:10.465Z,0
2016-12-09T15:39:19.389Z,0
2016-12-09T15:40:28.333Z,0
2016-12-09T15:41:37.248Z,0
2016-12-09T15:42:46.147Z,0
2016-12-09T15:43:55.071Z,0
2016-12-09T15:45:03.708Z,0
2016-12-09T15:46:12.313Z,0
2016-12-09T15:47:21.235Z,0
2016-12-09T15:48:29.825Z,0
2016-12-09T15:49:38.752Z,0
2016-12-09T15:50:47.412Z,0
2016-12-09T15:51:56.331Z,0
2016-12-09T15:53:04.910Z,0
2016-12-09T15:54:13.496Z,0
2016-12-09T15:55:22.402Z,0
2016-12-09T15:56:31.093Z,0
2016-12-09T15:57:40.012Z,0
2016-12-09T15:58:48.923Z,0
2016-12-09T15:59:57.823Z,0
2016-12-09T16:01:06.412Z,0
2016-12-09T16:02:15.683Z,0
2016-12-09T16:03:24.585Z,0
2016-12-09T16:04:33.789Z,0
2016-12-09T16:05:42.365Z,0
2016-12-09T16:06:51.293Z,0
2016-12-09T16:08:00.969Z,0
2016-12-09T16:09:10.209Z,0
2016-12-09T16:10:19.119Z,0
2016-12-09T16:11:28.022Z,0
2016-12-09T16:12:36.935Z,0
2016-12-09T16:13:46.801Z,0
2016-12-09T16:14:56.029Z,0
2016-12-09T16:16:04.608Z,0
2016-12-09T16:17:13.536Z,0
2016-12-09T16:18:22.453Z,0
2016-12-09T16:19:31.426Z,0
2016-12-09T16:20:40.031Z,0
2016-12-09T16:21:48.947Z,0
2016-12-09T16:22:57.542Z,0
2016-12-09T16:24:06.771Z,0
2016-12-09T16:25:15.407Z,0
2016-12-09T16:26:24.640Z,0
2016-12-09T16:27:33.535Z,0
2016-12-09T16:28:42.124Z,0
2016-12-09T16:29:51.338Z,0
2016-12-09T16:31:00.022Z,0
2016-12-09T16:32:08.935Z,0